Meteorología y climatología de Navarra
Datos de la estación - Meteo Navarra

Estación de Getadar GN

Altitud 710 m.


Datos desde el 11/01/2019 hasta el 12/01/2019 en horario solar
Los datos son PROVISIONALES

Anterior Página 1 de 1 Siguiente Descargar: Formato para Excel 2000 o superior   Formato csv   Formato para OpenOffice Calc
Fecha Temperatura Humedad relativa Radiación global Insolación Precipitación Velocidad viento 10 m Velocidad viento 10 m Dirección viento 10 m
ºC % W/m² s l/m² m/s km/h º
11/01/2019 0:00 -2.4 76 0.0 0 0.0 4.3 15.6 346
11/01/2019 0:10 -2.4 77 0.0 0 0.0 3.9 14.1 348
11/01/2019 0:20 -2.4 78 0.0 0 0.0 3.9 14.0 349
11/01/2019 0:30 -2.4 78 0.0 0 0.0 4.3 15.4 342
11/01/2019 0:40 -2.2 78 0.0 0 0.0 3.6 12.9 351
11/01/2019 0:50 -2.1 78 0.0 0 0.0 4.0 14.5 343
11/01/2019 1:00 -2.1 78 0.0 0 0.0 5.5 19.9 337
11/01/2019 1:10 -2.2 78 0.0 0 0.0 5.3 19.2 338
11/01/2019 1:20 -2.2 78 0.0 0 0.0 6.3 22.5 336
11/01/2019 1:30 -2.2 78 0.0 0 0.0 5.8 21.0 339
11/01/2019 1:40 -2.1 78 0.0 0 0.0 5.8 20.9 338
11/01/2019 1:50 -2.1 78 0.0 0 0.0 5.8 21.0 344
11/01/2019 2:00 -2.1 78 0.0 0 0.0 5.5 19.9 346
11/01/2019 2:10 -2.1 79 0.0 0 0.0 6.0 21.7 347
11/01/2019 2:20 -2.1 79 0.0 0 0.0 5.6 20.2 351
11/01/2019 2:30 -2.2 79 0.0 0 0.0 6.7 24.1 349
11/01/2019 2:40 -2.2 80 0.0 0 0.0 6.9 24.7 352
11/01/2019 2:50 -2.2 80 0.0 0 0.0 6.5 23.5 354
11/01/2019 3:00 -2.3 80 0.0 0 0.0 6.2 22.2 355
11/01/2019 3:10 -2.3 81 0.0 0 0.0 6.0 21.5 351
11/01/2019 3:20 -2.3 81 0.0 0 0.0 5.7 20.5 353
11/01/2019 3:30 -2.3 80 0.0 0 0.0 5.8 20.9 353
11/01/2019 3:40 -2.4 81 0.0 0 0.0 5.2 18.6 352
11/01/2019 3:50 -2.5 81 0.0 0 0.0 5.6 20.0 351
11/01/2019 4:00 -2.5 81 0.0 0 0.0 5.2 18.8 348
11/01/2019 4:10 -2.6 81 0.0 0 0.0 5.4 19.3 344
11/01/2019 4:20 -2.7 80 0.0 0 0.0 5.3 19.2 346
11/01/2019 4:30 -2.7 80 0.0 0 0.0 6.0 21.6 348
11/01/2019 4:40 -2.9 81 0.0 0 0.0 5.6 20.2 353
11/01/2019 4:50 -3.0 81 0.0 0 0.0 5.6 20.0 353
11/01/2019 5:00 -3.2 81 0.0 0 0.0 6.0 21.7 355
11/01/2019 5:10 -3.2 81 0.0 0 0.0 6.4 23.0 357
11/01/2019 5:20 -3.3 80 0.0 0 0.0 6.6 23.8 356
11/01/2019 5:30 -3.3 80 0.0 0 0.0 7.2 25.7 357
11/01/2019 5:40 -3.4 80 0.0 0 0.0 7.5 27.1 355
11/01/2019 5:50 -3.4 80 0.0 0 0.0 7.7 27.5 356
11/01/2019 6:00 -3.4 81 0.0 0 0.0 7.6 27.3 359
11/01/2019 6:10 -3.4 81 0.0 0 0.0 7.4 26.5 359
11/01/2019 6:20 -3.5 81 0.0 0 0.0 7.4 26.6 358
11/01/2019 6:30 -3.5 81 0.0 0 0.0 7.4 26.6 357
11/01/2019 6:40 -3.4 81 0.0 0 0.0 7.3 26.1 359
11/01/2019 6:50 -3.4 81 0.0 0 0.0 7.6 27.4 360
11/01/2019 7:00 -3.4 80 0.0 0 0.0 7.5 26.9 359
11/01/2019 7:10 -3.4 79 0.0 0 0.0 6.7 24.2 359
11/01/2019 7:20 -3.4 78 0.0 0 0.0 6.5 23.3 2
11/01/2019 7:30 -3.2 77 0.0 0 0.0 6.2 22.3 360
11/01/2019 7:40 -3.2 76 7.6 0 0.0 5.9 21.2 5
11/01/2019 7:50 -3.1 75 27.1 188 0.0 6.1 21.9 360
11/01/2019 8:00 -3.0 75 43.3 600 0.0 4.9 17.8 360
11/01/2019 8:10 -2.9 74 65.3 600 0.0 5.8 20.7 0
11/01/2019 8:20 -2.8 74 87.1 600 0.0 5.6 20.3 4
11/01/2019 8:30 -2.7 73 95.4 600 0.0 6.0 21.7 359
11/01/2019 8:40 -2.6 72 134.6 600 0.0 5.7 20.4 358
11/01/2019 8:50 -2.3 72 159.7 600 0.0 5.2 18.6 359
11/01/2019 9:00 -2.1 71 184.9 600 0.0 5.2 18.8 359
11/01/2019 9:10 -1.8 70 209.3 600 0.0 5.5 19.7 356
11/01/2019 9:20 -1.7 70 227.7 600 0.0 5.2 18.5 4
11/01/2019 9:30 -1.3 68 244.0 566 0.0 5.1 18.4 3
11/01/2019 9:40 -1.0 67 242.2 498 0.0 5.7 20.6 2
11/01/2019 9:50 -0.8 66 283.1 564 0.0 5.1 18.4 3
11/01/2019 10:00 -0.3 64 320.4 594 0.0 4.3 15.5 4
11/01/2019 10:10 0.1 63 341.3 600 0.0 3.9 14.1 11
11/01/2019 10:20 0.4 62 364.4 600 0.0 4.0 14.4 12
11/01/2019 10:30 0.8 60 381.2 600 0.0 4.7 16.7 14
11/01/2019 10:40 0.9 60 397.8 600 0.0 5.2 18.9 9
11/01/2019 10:50 1.1 60 412.3 600 0.0 5.5 19.9 16
11/01/2019 11:00 1.4 59 426.0 600 0.0 4.4 15.8 7
11/01/2019 11:10 1.7 59 439.5 600 0.0 4.1 14.6 11
11/01/2019 11:20 2.0 58 449.6 600 0.0 5.3 19.0 8
11/01/2019 11:30 2.0 58 439.3 580 0.0 5.7 20.6 4
11/01/2019 11:40 2.1 57 463.4 586 0.0 5.2 18.7 1
11/01/2019 11:50 2.3 57 472.1 592 0.0 4.7 17.1 7
11/01/2019 12:00 2.5 56 478.6 594 0.0 4.9 17.8 0
11/01/2019 12:10 2.6 56 477.1 594 0.0 5.0 18.1 354
11/01/2019 12:20 2.3 57 426.0 514 0.0 6.1 22.1 352
11/01/2019 12:30 2.4 56 481.0 588 0.0 6.1 22.0 352
11/01/2019 12:40 2.5 56 484.2 600 0.0 5.8 20.9 351
11/01/2019 12:50 2.6 56 475.2 600 0.0 6.1 22.0 355
11/01/2019 13:00 2.6 56 464.2 600 0.0 6.5 23.3 1
11/01/2019 13:10 2.6 56 454.3 600 0.0 7.4 26.7 4
11/01/2019 13:20 2.5 56 445.6 600 0.0 7.8 28.1 3
11/01/2019 13:30 2.5 56 437.0 600 0.0 7.9 28.3 2
11/01/2019 13:40 2.6 56 425.7 600 0.0 7.4 26.5 4
11/01/2019 13:50 2.6 56 412.0 600 0.0 7.2 26.0 4
11/01/2019 14:00 2.6 56 397.1 600 0.0 6.5 23.5 4
11/01/2019 14:10 2.5 56 381.6 600 0.0 6.1 22.0 5
11/01/2019 14:20 2.6 56 356.8 590 0.0 6.2 22.2 360
11/01/2019 14:30 2.6 55 312.6 542 0.0 5.5 19.9 358
11/01/2019 14:40 2.5 56 288.0 530 0.0 6.5 23.4 358
11/01/2019 14:50 2.5 56 298.2 594 0.0 4.9 17.6 356
11/01/2019 15:00 2.4 57 258.7 554 0.0 6.9 24.9 357
11/01/2019 15:10 2.4 57 281.1 600 0.0 5.7 20.6 6
11/01/2019 15:20 2.5 57 273.1 600 0.0 6.8 24.4 4
11/01/2019 15:30 2.4 57 246.7 600 0.0 6.4 23.0 1
11/01/2019 15:40 2.4 57 225.4 600 0.0 6.0 21.7 4
11/01/2019 15:50 2.3 57 198.9 600 0.0 5.9 21.2 3
11/01/2019 16:00 2.2 58 157.0 600 0.0 5.4 19.5 2
11/01/2019 16:10 1.8 59 114.8 600 0.0 6.8 24.6 3
11/01/2019 16:20 1.5 60 88.7 600 0.0 7.6 27.5 3
11/01/2019 16:30 1.1 61 42.0 262 0.0 7.8 28.1 4
11/01/2019 16:40 0.8 62 22.6 0 0.0 7.6 27.3 2
11/01/2019 16:50 0.7 63 18.0 0 0.0 7.1 25.6 4
11/01/2019 17:00 0.6 64 3.2 0 0.0 7.4 26.7 3
11/01/2019 17:10 0.5 64 0.0 0 0.0 7.5 27.1 2
11/01/2019 17:20 0.4 65 0.0 0 0.0 7.0 25.2 6
11/01/2019 17:30 0.4 65 0.0 0 0.0 8.2 29.7 3
11/01/2019 17:40 0.4 65 0.0 0 0.0 8.8 31.6 5
11/01/2019 17:50 0.3 66 0.0 0 0.0 8.2 29.7 4
11/01/2019 18:00 0.3 66 0.0 0 0.0 8.4 30.2 4
11/01/2019 18:10 0.3 66 0.0 0 0.0 7.4 26.7 3
11/01/2019 18:20 0.2 67 0.0 0 0.0 7.8 27.9 6
11/01/2019 18:30 0.2 67 0.0 0 0.0 6.4 23.0 4
11/01/2019 18:40 0.2 67 0.0 0 0.0 5.9 21.1 5
11/01/2019 18:50 0.2 68 0.0 0 0.0 6.9 24.7 1
11/01/2019 19:00 0.1 68 0.0 0 0.0 6.9 24.9 3
11/01/2019 19:10 0.0 68 0.0 0 0.0 6.6 23.7 2
11/01/2019 19:20 -0.1 68 0.0 0 0.0 6.6 23.7 1
11/01/2019 19:30 -0.2 68 0.0 0 0.0 6.1 21.8 360
11/01/2019 19:40 -0.2 68 0.0 0 0.0 5.8 21.0 1
11/01/2019 19:50 -0.2 68 0.0 0 0.0 5.1 18.4 358
11/01/2019 20:00 -0.0 68 0.0 0 0.0 4.6 16.5 356
11/01/2019 20:10 0.0 68 0.0 0 0.0 4.1 14.8 346
11/01/2019 20:20 -0.1 69 0.0 0 0.0 3.8 13.7 341
11/01/2019 20:30 -0.1 70 0.0 0 0.0 5.2 18.6 351
11/01/2019 20:40 -0.1 70 0.0 0 0.0 5.0 18.1 348
11/01/2019 20:50 -0.1 70 0.0 0 0.0 5.2 18.5 346
11/01/2019 21:00 -0.0 70 0.0 0 0.0 4.9 17.7 339
11/01/2019 21:10 -0.1 70 0.0 0 0.0 6.2 22.4 344
11/01/2019 21:20 -0.1 70 0.0 0 0.0 5.4 19.4 347
11/01/2019 21:30 -0.1 70 0.0 0 0.0 5.0 18.0 347
11/01/2019 21:40 -0.1 70 0.0 0 0.0 5.0 18.1 350
11/01/2019 21:50 -0.1 69 0.0 0 0.0 5.2 18.7 349
11/01/2019 22:00 -0.1 69 0.0 0 0.0 5.0 18.1 344
11/01/2019 22:10 -0.0 70 0.0 0 0.0 5.3 18.9 344
11/01/2019 22:20 0.0 70 0.0 0 0.0 4.8 17.2 345
11/01/2019 22:30 -0.1 72 0.0 0 0.0 4.6 16.4 339
11/01/2019 22:40 0.1 71 0.0 0 0.0 4.9 17.7 336
11/01/2019 22:50 0.1 72 0.0 0 0.0 5.2 18.7 335
11/01/2019 23:00 0.1 73 0.0 0 0.0 5.0 18.0 341
11/01/2019 23:10 0.1 73 0.0 0 0.0 5.1 18.2 341
11/01/2019 23:20 0.2 73 0.0 0 0.0 5.1 18.3 338
11/01/2019 23:30 0.2 73 0.0 0 0.0 4.2 15.0 331
11/01/2019 23:40 0.2 74 0.0 0 0.0 4.6 16.5 326
11/01/2019 23:50 0.2 74 0.0 0 0.0 5.4 19.6 336
Anterior Página 1 de 1 Siguiente

NOTA: Tipo de datos según el color:
   - Valores diarios o 10 minutos correctos
   - Valores diarios calculados a partir de un número de datos 10 minutos menor que 144 y mayor que 120, o de un número de datos semihorarios menor que 48 y mayor que 40 (caso de las estaciones de Riegos de Navarra y del MARM)
   - Valores diez minutos estimados


Contacto        Enlaces        Aviso legal